sensor_id;sensor_type;location;lat;lon;timestamp;temperature;humidity
19483;DHT22;9882;51.166;6.992;2023-04-24T00:00:29;11.40;99.90
19483;DHT22;9882;51.166;6.992;2023-04-24T00:02:59;11.40;99.90
19483;DHT22;9882;51.166;6.992;2023-04-24T00:05:29;11.40;99.90
19483;DHT22;9882;51.166;6.992;2023-04-24T00:07:58;11.50;99.90
19483;DHT22;9882;51.166;6.992;2023-04-24T00:10:27;11.60;99.90
19483;DHT22;9882;51.166;6.992;2023-04-24T00:12:56;11.70;99.90
19483;DHT22;9882;51.166;6.992;2023-04-24T00:15:25;11.30;99.90
19483;DHT22;9882;51.166;6.992;2023-04-24T00:17:54;11.30;99.90
19483;DHT22;9882;51.166;6.992;2023-04-24T00:20:23;11.30;99.90
19483;DHT22;9882;51.166;6.992;2023-04-24T00:22:53;11.40;99.90
19483;DHT22;9882;51.166;6.992;2023-04-24T00:25:22;11.40;99.90
19483;DHT22;9882;51.166;6.992;2023-04-24T00:27:51;11.30;99.90
19483;DHT22;9882;51.166;6.992;2023-04-24T00:30:20;11.20;99.90
19483;DHT22;9882;51.166;6.992;2023-04-24T00:32:49;11.20;99.90
19483;DHT22;9882;51.166;6.992;2023-04-24T00:35:18;11.60;99.90
19483;DHT22;9882;51.166;6.992;2023-04-24T00:37:48;11.50;99.90
19483;DHT22;9882;51.166;6.992;2023-04-24T00:40:19;11.20;99.90
19483;DHT22;9882;51.166;6.992;2023-04-24T00:42:48;11.10;99.90
19483;DHT22;9882;51.166;6.992;2023-04-24T00:45:18;11.20;99.90
19483;DHT22;9882;51.166;6.992;2023-04-24T00:47:48;11.20;99.90
19483;DHT22;9882;51.166;6.992;2023-04-24T00:50:20;11.40;99.90
19483;DHT22;9882;51.166;6.992;2023-04-24T00:52:50;11.30;99.90
19483;DHT22;9882;51.166;6.992;2023-04-24T00:55:21;11.30;99.90
19483;DHT22;9882;51.166;6.992;2023-04-24T00:57:51;11.20;99.90
19483;DHT22;9882;51.166;6.992;2023-04-24T01:00:20;11.40;99.90
19483;DHT22;9882;51.166;6.992;2023-04-24T01:02:49;11.30;99.90
19483;DHT22;9882;51.166;6.992;2023-04-24T01:05:19;11.20;99.90
19483;DHT22;9882;51.166;6.992;2023-04-24T01:07:48;11.20;99.90
19483;DHT22;9882;51.166;6.992;2023-04-24T01:10:17;11.40;99.90
19483;DHT22;9882;51.166;6.992;2023-04-24T01:12:49;11.40;99.90
19483;DHT22;9882;51.166;6.992;2023-04-24T01:15:18;11.30;99.90
19483;DHT22;9882;51.166;6.992;2023-04-24T01:17:48;11.10;99.90
19483;DHT22;9882;51.166;6.992;2023-04-24T01:20:17;11.20;99.90
19483;DHT22;9882;51.166;6.992;2023-04-24T01:22:50;11.10;99.90
19483;DHT22;9882;51.166;6.992;2023-04-24T01:25:19;11.20;99.90
19483;DHT22;9882;51.166;6.992;2023-04-24T01:27:48;11.10;99.90
19483;DHT22;9882;51.166;6.992;2023-04-24T01:30:17;10.80;99.90
19483;DHT22;9882;51.166;6.992;2023-04-24T01:32:47;11.20;99.90
19483;DHT22;9882;51.166;6.992;2023-04-24T01:35:16;10.80;99.90
19483;DHT22;9882;51.166;6.992;2023-04-24T01:37:45;10.80;99.90
19483;DHT22;9882;51.166;6.992;2023-04-24T01:40:15;10.80;99.90
19483;DHT22;9882;51.166;6.992;2023-04-24T01:42:45;10.70;99.90
19483;DHT22;9882;51.166;6.992;2023-04-24T01:45:14;10.60;99.90
19483;DHT22;9882;51.166;6.992;2023-04-24T01:47:44;10.70;99.90
19483;DHT22;9882;51.166;6.992;2023-04-24T01:50:14;10.50;99.90
19483;DHT22;9882;51.166;6.992;2023-04-24T01:52:43;10.50;99.90
19483;DHT22;9882;51.166;6.992;2023-04-24T01:55:11;10.70;99.90
19483;DHT22;9882;51.166;6.992;2023-04-24T01:57:42;10.40;99.90
19483;DHT22;9882;51.166;6.992;2023-04-24T02:00:11;10.10;99.90
19483;DHT22;9882;51.166;6.992;2023-04-24T02:02:41;10.10;99.90
19483;DHT22;9882;51.166;6.992;2023-04-24T02:05:11;10.40;99.90
19483;DHT22;9882;51.166;6.992;2023-04-24T02:07:42;10.20;99.90
19483;DHT22;9882;51.166;6.992;2023-04-24T02:10:11;10.80;99.90
19483;DHT22;9882;51.166;6.992;2023-04-24T02:12:45;10.30;99.90
19483;DHT22;9882;51.166;6.992;2023-04-24T02:15:15;10.30;99.90
19483;DHT22;9882;51.166;6.992;2023-04-24T02:17:45;10.00;99.90
19483;DHT22;9882;51.166;6.992;2023-04-24T02:20:14;10.00;99.90
19483;DHT22;9882;51.166;6.992;2023-04-24T02:22:43;10.00;99.90
19483;DHT22;9882;51.166;6.992;2023-04-24T02:25:12;9.90;99.90
19483;DHT22;9882;51.166;6.992;2023-04-24T02:27:41;10.10;99.90
19483;DHT22;9882;51.166;6.992;2023-04-24T02:30:12;9.80;99.90
19483;DHT22;9882;51.166;6.992;2023-04-24T02:32:41;9.80;99.90
19483;DHT22;9882;51.166;6.992;2023-04-24T02:35:16;10.00;99.90
19483;DHT22;9882;51.166;6.992;2023-04-24T02:37:45;10.00;99.90
19483;DHT22;9882;51.166;6.992;2023-04-24T02:40:18;9.80;99.90
19483;DHT22;9882;51.166;6.992;2023-04-24T02:42:47;9.60;99.90
19483;DHT22;9882;51.166;6.992;2023-04-24T02:45:18;9.80;99.90
19483;DHT22;9882;51.166;6.992;2023-04-24T02:47:47;10.00;99.90
19483;DHT22;9882;51.166;6.992;2023-04-24T02:50:17;10.00;99.90
19483;DHT22;9882;51.166;6.992;2023-04-24T02:52:46;9.90;99.90
19483;DHT22;9882;51.166;6.992;2023-04-24T02:55:15;9.90;99.90
19483;DHT22;9882;51.166;6.992;2023-04-24T02:57:44;10.00;99.90
19483;DHT22;9882;51.166;6.992;2023-04-24T03:00:13;10.20;99.90
19483;DHT22;9882;51.166;6.992;2023-04-24T03:02:44;10.00;99.90
19483;DHT22;9882;51.166;6.992;2023-04-24T03:05:13;9.80;99.90
19483;DHT22;9882;51.166;6.992;2023-04-24T03:07:42;9.90;99.90
19483;DHT22;9882;51.166;6.992;2023-04-24T03:10:11;9.90;99.90
19483;DHT22;9882;51.166;6.992;2023-04-24T03:12:41;10.00;99.90
19483;DHT22;9882;51.166;6.992;2023-04-24T03:15:11;10.10;99.90
19483;DHT22;9882;51.166;6.992;2023-04-24T03:17:40;10.10;99.90
19483;DHT22;9882;51.166;6.992;2023-04-24T03:20:10;10.00;99.90
19483;DHT22;9882;51.166;6.992;2023-04-24T03:22:40;9.90;99.90
19483;DHT22;9882;51.166;6.992;2023-04-24T03:25:09;10.00;99.90
19483;DHT22;9882;51.166;6.992;2023-04-24T03:27:38;9.90;99.90
19483;DHT22;9882;51.166;6.992;2023-04-24T03:30:18;10.10;99.90
19483;DHT22;9882;51.166;6.992;2023-04-24T03:32:52;10.30;99.90
19483;DHT22;9882;51.166;6.992;2023-04-24T03:35:29;10.20;99.90
19483;DHT22;9882;51.166;6.992;2023-04-24T03:38:01;10.30;99.90
19483;DHT22;9882;51.166;6.992;2023-04-24T03:40:50;10.30;99.90
19483;DHT22;9882;51.166;6.992;2023-04-24T03:43:42;10.40;99.90
19483;DHT22;9882;51.166;6.992;2023-04-24T03:46:11;10.10;99.90
19483;DHT22;9882;51.166;6.992;2023-04-24T03:48:45;10.10;99.90
19483;DHT22;9882;51.166;6.992;2023-04-24T03:51:18;10.20;99.90
19483;DHT22;9882;51.166;6.992;2023-04-24T03:53:50;10.10;99.90
19483;DHT22;9882;51.166;6.992;2023-04-24T03:56:21;10.00;99.90
19483;DHT22;9882;51.166;6.992;2023-04-24T03:58:50;9.80;99.90
19483;DHT22;9882;51.166;6.992;2023-04-24T04:01:20;9.90;99.90
19483;DHT22;9882;51.166;6.992;2023-04-24T04:03:58;10.00;99.90
19483;DHT22;9882;51.166;6.992;2023-04-24T04:06:30;9.80;99.90
19483;DHT22;9882;51.166;6.992;2023-04-24T04:09:01;10.00;99.90
19483;DHT22;9882;51.166;6.992;2023-04-24T04:11:31;10.40;99.90
19483;DHT22;9882;51.166;6.992;2023-04-24T04:14:00;10.20;99.90
19483;DHT22;9882;51.166;6.992;2023-04-24T04:16:30;10.20;99.90
19483;DHT22;9882;51.166;6.992;2023-04-24T04:19:02;10.20;99.90
19483;DHT22;9882;51.166;6.992;2023-04-24T04:21:34;10.10;99.90
19483;DHT22;9882;51.166;6.992;2023-04-24T04:24:17;9.90;99.90
19483;DHT22;9882;51.166;6.992;2023-04-24T04:26:46;9.80;99.90
19483;DHT22;9882;51.166;6.992;2023-04-24T04:29:24;9.90;99.90
19483;DHT22;9882;51.166;6.992;2023-04-24T04:31:53;9.80;99.90
19483;DHT22;9882;51.166;6.992;2023-04-24T04:34:24;9.80;99.90
19483;DHT22;9882;51.166;6.992;2023-04-24T04:36:54;9.80;99.90
19483;DHT22;9882;51.166;6.992;2023-04-24T04:39:40;9.90;99.90
19483;DHT22;9882;51.166;6.992;2023-04-24T04:42:13;9.90;99.90
19483;DHT22;9882;51.166;6.992;2023-04-24T04:44:43;9.90;99.90
19483;DHT22;9882;51.166;6.992;2023-04-24T04:47:18;9.70;99.90
19483;DHT22;9882;51.166;6.992;2023-04-24T04:49:50;9.80;99.90
19483;DHT22;9882;51.166;6.992;2023-04-24T04:52:25;9.70;99.90
19483;DHT22;9882;51.166;6.992;2023-04-24T04:55:07;9.80;99.90
19483;DHT22;9882;51.166;6.992;2023-04-24T04:57:55;9.70;99.90
19483;DHT22;9882;51.166;6.992;2023-04-24T05:00:25;9.70;99.90
19483;DHT22;9882;51.166;6.992;2023-04-24T05:02:56;10.00;99.90
19483;DHT22;9882;51.166;6.992;2023-04-24T05:05:29;10.10;99.90
19483;DHT22;9882;51.166;6.992;2023-04-24T05:08:03;9.90;99.90
19483;DHT22;9882;51.166;6.992;2023-04-24T05:10:34;9.90;99.90
19483;DHT22;9882;51.166;6.992;2023-04-24T05:13:04;9.70;99.90
19483;DHT22;9882;51.166;6.992;2023-04-24T05:15:34;9.60;99.90
19483;DHT22;9882;51.166;6.992;2023-04-24T05:18:03;9.70;99.90
19483;DHT22;9882;51.166;6.992;2023-04-24T05:20:33;9.70;99.90
19483;DHT22;9882;51.166;6.992;2023-04-24T05:23:03;9.50;99.90
19483;DHT22;9882;51.166;6.992;2023-04-24T05:25:33;9.50;99.90
19483;DHT22;9882;51.166;6.992;2023-04-24T05:28:07;9.60;99.90
19483;DHT22;9882;51.166;6.992;2023-04-24T05:30:37;9.60;99.90
19483;DHT22;9882;51.166;6.992;2023-04-24T05:33:07;9.70;99.90
19483;DHT22;9882;51.166;6.992;2023-04-24T05:35:37;10.10;99.90
19483;DHT22;9882;51.166;6.992;2023-04-24T05:38:08;9.80;99.90
19483;DHT22;9882;51.166;6.992;2023-04-24T05:40:37;9.60;99.90
19483;DHT22;9882;51.166;6.992;2023-04-24T05:43:06;9.50;99.90
19483;DHT22;9882;51.166;6.992;2023-04-24T05:45:35;9.60;99.90
19483;DHT22;9882;51.166;6.992;2023-04-24T05:48:04;9.70;99.90
19483;DHT22;9882;51.166;6.992;2023-04-24T05:50:33;9.70;99.90
19483;DHT22;9882;51.166;6.992;2023-04-24T05:53:04;9.30;99.90
19483;DHT22;9882;51.166;6.992;2023-04-24T05:55:41;9.60;99.90
19483;DHT22;9882;51.166;6.992;2023-04-24T05:58:10;9.30;99.90
19483;DHT22;9882;51.166;6.992;2023-04-24T06:00:41;9.30;99.90
19483;DHT22;9882;51.166;6.992;2023-04-24T06:03:12;9.20;99.90
19483;DHT22;9882;51.166;6.992;2023-04-24T06:05:44;9.50;99.90
19483;DHT22;9882;51.166;6.992;2023-04-24T06:08:13;9.60;99.90
19483;DHT22;9882;51.166;6.992;2023-04-24T06:10:45;9.60;99.90
19483;DHT22;9882;51.166;6.992;2023-04-24T06:13:16;9.40;99.90
19483;DHT22;9882;51.166;6.992;2023-04-24T06:16:03;9.50;99.90
19483;DHT22;9882;51.166;6.992;2023-04-24T06:18:35;9.40;99.90
19483;DHT22;9882;51.166;6.992;2023-04-24T06:21:04;9.10;99.90
19483;DHT22;9882;51.166;6.992;2023-04-24T06:23:33;9.30;99.90
19483;DHT22;9882;51.166;6.992;2023-04-24T06:26:04;9.40;99.90
19483;DHT22;9882;51.166;6.992;2023-04-24T06:28:33;9.40;99.90
19483;DHT22;9882;51.166;6.992;2023-04-24T06:31:02;9.40;99.90
19483;DHT22;9882;51.166;6.992;2023-04-24T06:33:31;9.60;99.90
19483;DHT22;9882;51.166;6.992;2023-04-24T06:36:02;9.40;99.90
19483;DHT22;9882;51.166;6.992;2023-04-24T06:38:32;9.40;99.90
19483;DHT22;9882;51.166;6.992;2023-04-24T06:41:01;9.20;99.90
19483;DHT22;9882;51.166;6.992;2023-04-24T06:43:59;9.20;99.90
19483;DHT22;9882;51.166;6.992;2023-04-24T06:46:28;9.10;99.90
19483;DHT22;9882;51.166;6.992;2023-04-24T06:52:37;9.00;99.90
19483;DHT22;9882;51.166;6.992;2023-04-24T06:55:07;8.90;99.90
19483;DHT22;9882;51.166;6.992;2023-04-24T06:57:40;8.80;99.90
19483;DHT22;9882;51.166;6.992;2023-04-24T07:00:12;8.90;99.90
19483;DHT22;9882;51.166;6.992;2023-04-24T07:02:42;8.70;99.90
19483;DHT22;9882;51.166;6.992;2023-04-24T07:05:11;8.90;99.90
19483;DHT22;9882;51.166;6.992;2023-04-24T07:07:42;8.80;99.90
19483;DHT22;9882;51.166;6.992;2023-04-24T07:10:12;8.80;99.90
19483;DHT22;9882;51.166;6.992;2023-04-24T07:12:42;9.00;99.90
19483;DHT22;9882;51.166;6.992;2023-04-24T07:15:15;9.10;99.90
19483;DHT22;9882;51.166;6.992;2023-04-24T07:18:20;8.90;99.90
19483;DHT22;9882;51.166;6.992;2023-04-24T07:21:39;8.70;99.90
19483;DHT22;9882;51.166;6.992;2023-04-24T07:24:08;8.90;99.90
19483;DHT22;9882;51.166;6.992;2023-04-24T07:26:39;9.00;99.90
19483;DHT22;9882;51.166;6.992;2023-04-24T07:29:08;8.70;99.90
19483;DHT22;9882;51.166;6.992;2023-04-24T07:31:43;9.00;99.90
19483;DHT22;9882;51.166;6.992;2023-04-24T07:34:13;8.60;99.90
19483;DHT22;9882;51.166;6.992;2023-04-24T07:36:42;8.40;99.90
19483;DHT22;9882;51.166;6.992;2023-04-24T07:39:11;8.60;99.90
19483;DHT22;9882;51.166;6.992;2023-04-24T07:41:40;8.50;99.90
19483;DHT22;9882;51.166;6.992;2023-04-24T07:44:09;8.30;99.90
19483;DHT22;9882;51.166;6.992;2023-04-24T07:46:39;8.40;99.90
19483;DHT22;9882;51.166;6.992;2023-04-24T07:49:09;8.60;99.90
19483;DHT22;9882;51.166;6.992;2023-04-24T07:51:39;8.60;99.90
19483;DHT22;9882;51.166;6.992;2023-04-24T07:54:09;8.60;99.90
19483;DHT22;9882;51.166;6.992;2023-04-24T07:56:38;8.60;99.90
19483;DHT22;9882;51.166;6.992;2023-04-24T07:59:07;8.00;99.90
19483;DHT22;9882;51.166;6.992;2023-04-24T08:01:38;7.80;99.90
19483;DHT22;9882;51.166;6.992;2023-04-24T08:04:07;7.70;99.90
19483;DHT22;9882;51.166;6.992;2023-04-24T08:06:36;7.70;99.90
19483;DHT22;9882;51.166;6.992;2023-04-24T08:09:05;7.60;99.90
19483;DHT22;9882;51.166;6.992;2023-04-24T08:11:35;7.40;99.90
19483;DHT22;9882;51.166;6.992;2023-04-24T08:14:04;7.30;99.90
19483;DHT22;9882;51.166;6.992;2023-04-24T08:16:34;7.40;99.90
19483;DHT22;9882;51.166;6.992;2023-04-24T08:19:05;7.70;99.90
19483;DHT22;9882;51.166;6.992;2023-04-24T08:21:34;7.80;99.90
19483;DHT22;9882;51.166;6.992;2023-04-24T08:24:03;7.80;99.90
19483;DHT22;9882;51.166;6.992;2023-04-24T08:26:35;7.70;99.90
19483;DHT22;9882;51.166;6.992;2023-04-24T08:29:04;7.80;99.90
19483;DHT22;9882;51.166;6.992;2023-04-24T08:31:38;7.50;99.90
19483;DHT22;9882;51.166;6.992;2023-04-24T08:34:12;7.50;99.90
19483;DHT22;9882;51.166;6.992;2023-04-24T08:36:41;7.60;99.90
19483;DHT22;9882;51.166;6.992;2023-04-24T08:39:13;7.40;99.90
19483;DHT22;9882;51.166;6.992;2023-04-24T08:41:42;7.50;99.90
19483;DHT22;9882;51.166;6.992;2023-04-24T08:44:13;7.60;99.90
19483;DHT22;9882;51.166;6.992;2023-04-24T08:46:44;7.60;99.90
19483;DHT22;9882;51.166;6.992;2023-04-24T08:49:17;7.60;99.90
19483;DHT22;9882;51.166;6.992;2023-04-24T08:51:46;7.40;99.90
19483;DHT22;9882;51.166;6.992;2023-04-24T08:54:15;7.40;99.90
19483;DHT22;9882;51.166;6.992;2023-04-24T08:56:47;7.60;99.90
19483;DHT22;9882;51.166;6.992;2023-04-24T08:59:18;7.70;99.90
19483;DHT22;9882;51.166;6.992;2023-04-24T09:01:48;7.60;99.90
19483;DHT22;9882;51.166;6.992;2023-04-24T09:04:23;7.90;99.90
19483;DHT22;9882;51.166;6.992;2023-04-24T09:06:56;7.80;99.90
19483;DHT22;9882;51.166;6.992;2023-04-24T09:09:26;7.80;99.90
19483;DHT22;9882;51.166;6.992;2023-04-24T09:11:58;7.60;99.90
19483;DHT22;9882;51.166;6.992;2023-04-24T09:14:28;7.70;99.90
19483;DHT22;9882;51.166;6.992;2023-04-24T09:16:59;7.70;99.90
19483;DHT22;9882;51.166;6.992;2023-04-24T09:19:29;7.70;99.90
19483;DHT22;9882;51.166;6.992;2023-04-24T09:21:59;7.80;99.90
19483;DHT22;9882;51.166;6.992;2023-04-24T09:24:28;7.80;99.90
19483;DHT22;9882;51.166;6.992;2023-04-24T09:26:57;7.70;99.90
19483;DHT22;9882;51.166;6.992;2023-04-24T09:29:29;7.70;99.90
19483;DHT22;9882;51.166;6.992;2023-04-24T09:32:18;7.70;99.90
19483;DHT22;9882;51.166;6.992;2023-04-24T09:35:05;7.80;99.90
19483;DHT22;9882;51.166;6.992;2023-04-24T09:37:36;7.90;99.90
19483;DHT22;9882;51.166;6.992;2023-04-24T09:40:14;7.70;99.90
19483;DHT22;9882;51.166;6.992;2023-04-24T09:42:44;7.90;99.90
19483;DHT22;9882;51.166;6.992;2023-04-24T09:45:14;7.90;99.90
19483;DHT22;9882;51.166;6.992;2023-04-24T09:47:43;7.90;99.90
19483;DHT22;9882;51.166;6.992;2023-04-24T09:50:16;7.60;99.90
19483;DHT22;9882;51.166;6.992;2023-04-24T09:52:56;7.90;99.90
19483;DHT22;9882;51.166;6.992;2023-04-24T09:55:29;7.70;99.90
19483;DHT22;9882;51.166;6.992;2023-04-24T09:58:01;7.60;99.90
19483;DHT22;9882;51.166;6.992;2023-04-24T10:00:35;7.60;99.90
19483;DHT22;9882;51.166;6.992;2023-04-24T10:03:10;7.70;99.90
19483;DHT22;9882;51.166;6.992;2023-04-24T10:05:52;7.70;99.90
19483;DHT22;9882;51.166;6.992;2023-04-24T10:08:33;7.90;99.90
19483;DHT22;9882;51.166;6.992;2023-04-24T10:11:03;7.70;99.90
19483;DHT22;9882;51.166;6.992;2023-04-24T10:13:32;7.90;99.90
19483;DHT22;9882;51.166;6.992;2023-04-24T10:16:03;8.00;99.90
19483;DHT22;9882;51.166;6.992;2023-04-24T10:18:33;8.10;99.90
19483;DHT22;9882;51.166;6.992;2023-04-24T10:21:08;8.10;99.90
19483;DHT22;9882;51.166;6.992;2023-04-24T10:23:38;8.10;99.90
19483;DHT22;9882;51.166;6.992;2023-04-24T10:26:09;8.30;99.90
19483;DHT22;9882;51.166;6.992;2023-04-24T10:28:40;8.10;99.90
19483;DHT22;9882;51.166;6.992;2023-04-24T10:31:11;8.20;99.90
19483;DHT22;9882;51.166;6.992;2023-04-24T10:33:43;8.10;99.90
19483;DHT22;9882;51.166;6.992;2023-04-24T10:36:14;8.40;99.90
19483;DHT22;9882;51.166;6.992;2023-04-24T10:38:46;8.30;99.90
19483;DHT22;9882;51.166;6.992;2023-04-24T10:41:18;8.40;99.90
19483;DHT22;9882;51.166;6.992;2023-04-24T10:44:04;8.50;99.90
19483;DHT22;9882;51.166;6.992;2023-04-24T10:46:35;8.50;99.90
19483;DHT22;9882;51.166;6.992;2023-04-24T10:49:28;8.50;99.90
19483;DHT22;9882;51.166;6.992;2023-04-24T10:52:02;8.50;99.90
19483;DHT22;9882;51.166;6.992;2023-04-24T10:54:35;8.50;99.90
19483;DHT22;9882;51.166;6.992;2023-04-24T10:57:27;8.60;99.90
19483;DHT22;9882;51.166;6.992;2023-04-24T11:00:20;8.60;99.90
19483;DHT22;9882;51.166;6.992;2023-04-24T11:02:53;8.60;99.90
19483;DHT22;9882;51.166;6.992;2023-04-24T11:05:52;8.70;99.90
19483;DHT22;9882;51.166;6.992;2023-04-24T11:08:25;8.60;99.90
19483;DHT22;9882;51.166;6.992;2023-04-24T11:10:56;8.50;99.90
19483;DHT22;9882;51.166;6.992;2023-04-24T11:13:28;8.60;99.90
19483;DHT22;9882;51.166;6.992;2023-04-24T11:16:25;8.60;99.90
19483;DHT22;9882;51.166;6.992;2023-04-24T11:19:04;8.60;99.90
19483;DHT22;9882;51.166;6.992;2023-04-24T11:21:41;8.70;99.90
19483;DHT22;9882;51.166;6.992;2023-04-24T11:24:32;8.70;99.90
19483;DHT22;9882;51.166;6.992;2023-04-24T11:27:06;8.80;99.90
19483;DHT22;9882;51.166;6.992;2023-04-24T11:29:40;8.70;99.90
19483;DHT22;9882;51.166;6.992;2023-04-24T11:32:24;8.70;99.90
19483;DHT22;9882;51.166;6.992;2023-04-24T11:34:54;8.70;99.90
19483;DHT22;9882;51.166;6.992;2023-04-24T11:37:40;8.70;99.90
19483;DHT22;9882;51.166;6.992;2023-04-24T11:40:11;8.60;99.90
19483;DHT22;9882;51.166;6.992;2023-04-24T11:42:41;8.90;99.90
19483;DHT22;9882;51.166;6.992;2023-04-24T11:45:16;8.90;99.90
19483;DHT22;9882;51.166;6.992;2023-04-24T11:47:51;9.00;99.90
19483;DHT22;9882;51.166;6.992;2023-04-24T11:50:24;9.10;99.90
19483;DHT22;9882;51.166;6.992;2023-04-24T11:52:57;9.20;99.90
19483;DHT22;9882;51.166;6.992;2023-04-24T11:55:32;9.10;99.90
19483;DHT22;9882;51.166;6.992;2023-04-24T11:58:01;9.20;99.90
19483;DHT22;9882;51.166;6.992;2023-04-24T12:00:31;9.30;99.90
19483;DHT22;9882;51.166;6.992;2023-04-24T12:03:05;9.20;99.90
19483;DHT22;9882;51.166;6.992;2023-04-24T12:23:16;9.40;99.90
19483;DHT22;9882;51.166;6.992;2023-04-24T12:51:35;9.60;99.90
19483;DHT22;9882;51.166;6.992;2023-04-24T12:54:07;9.80;99.90
19483;DHT22;9882;51.166;6.992;2023-04-24T12:56:36;9.70;99.90
19483;DHT22;9882;51.166;6.992;2023-04-24T12:59:06;9.80;99.90
19483;DHT22;9882;51.166;6.992;2023-04-24T13:01:37;9.80;99.90
19483;DHT22;9882;51.166;6.992;2023-04-24T13:04:10;9.80;99.90
19483;DHT22;9882;51.166;6.992;2023-04-24T13:06:44;10.00;99.90
19483;DHT22;9882;51.166;6.992;2023-04-24T13:09:17;10.20;99.90
19483;DHT22;9882;51.166;6.992;2023-04-24T13:11:49;10.40;99.90
19483;DHT22;9882;51.166;6.992;2023-04-24T13:14:20;10.40;99.90
19483;DHT22;9882;51.166;6.992;2023-04-24T13:24:35;10.30;99.90
19483;DHT22;9882;51.166;6.992;2023-04-24T13:38:09;10.50;99.90
19483;DHT22;9882;51.166;6.992;2023-04-24T13:45:01;11.00;99.90
19483;DHT22;9882;51.166;6.992;2023-04-24T14:47:03;10.80;99.90
19483;DHT22;9882;51.166;6.992;2023-04-24T14:49:31;10.70;99.90
19483;DHT22;9882;51.166;6.992;2023-04-24T14:52:00;10.80;99.90
19483;DHT22;9882;51.166;6.992;2023-04-24T14:54:29;11.10;99.90
19483;DHT22;9882;51.166;6.992;2023-04-24T14:56:59;11.00;99.90
19483;DHT22;9882;51.166;6.992;2023-04-24T14:59:28;11.20;99.90
19483;DHT22;9882;51.166;6.992;2023-04-24T15:01:58;11.60;99.90
19483;DHT22;9882;51.166;6.992;2023-04-24T15:04:36;12.40;99.90
19483;DHT22;9882;51.166;6.992;2023-04-24T15:07:05;12.60;99.90
19483;DHT22;9882;51.166;6.992;2023-04-24T15:09:33;12.50;99.90
19483;DHT22;9882;51.166;6.992;2023-04-24T15:12:02;12.00;99.90
19483;DHT22;9882;51.166;6.992;2023-04-24T15:14:30;11.90;99.90
19483;DHT22;9882;51.166;6.992;2023-04-24T15:16:59;11.70;99.90
19483;DHT22;9882;51.166;6.992;2023-04-24T15:19:27;11.80;99.90
19483;DHT22;9882;51.166;6.992;2023-04-24T15:21:57;12.30;99.90
19483;DHT22;9882;51.166;6.992;2023-04-24T15:24:26;13.70;99.90
19483;DHT22;9882;51.166;6.992;2023-04-24T15:26:54;14.20;99.90
19483;DHT22;9882;51.166;6.992;2023-04-24T15:29:24;13.90;99.90
19483;DHT22;9882;51.166;6.992;2023-04-24T15:31:54;14.50;99.90
19483;DHT22;9882;51.166;6.992;2023-04-24T15:34:22;14.50;99.90
19483;DHT22;9882;51.166;6.992;2023-04-24T15:36:51;14.70;99.90
19483;DHT22;9882;51.166;6.992;2023-04-24T15:39:22;14.10;99.90
19483;DHT22;9882;51.166;6.992;2023-04-24T15:41:51;13.90;99.90
19483;DHT22;9882;51.166;6.992;2023-04-24T15:44:20;13.30;99.90
19483;DHT22;9882;51.166;6.992;2023-04-24T15:46:49;12.80;99.90
19483;DHT22;9882;51.166;6.992;2023-04-24T15:49:18;12.60;99.90
19483;DHT22;9882;51.166;6.992;2023-04-24T15:51:47;12.80;99.90
19483;DHT22;9882;51.166;6.992;2023-04-24T15:54:15;13.20;99.90
19483;DHT22;9882;51.166;6.992;2023-04-24T15:56:46;13.30;99.90
19483;DHT22;9882;51.166;6.992;2023-04-24T15:59:14;12.70;99.90
19483;DHT22;9882;51.166;6.992;2023-04-24T16:01:43;12.70;99.90
19483;DHT22;9882;51.166;6.992;2023-04-24T16:04:11;12.40;99.90
19483;DHT22;9882;51.166;6.992;2023-04-24T16:06:40;12.30;99.90
19483;DHT22;9882;51.166;6.992;2023-04-24T16:09:09;12.50;99.90
19483;DHT22;9882;51.166;6.992;2023-04-24T16:11:37;12.00;99.90
19483;DHT22;9882;51.166;6.992;2023-04-24T16:14:07;12.60;99.90
19483;DHT22;9882;51.166;6.992;2023-04-24T16:16:36;13.50;99.90
19483;DHT22;9882;51.166;6.992;2023-04-24T16:19:05;13.10;99.90
19483;DHT22;9882;51.166;6.992;2023-04-24T16:21:34;13.10;99.90
19483;DHT22;9882;51.166;6.992;2023-04-24T16:24:03;12.50;99.90
19483;DHT22;9882;51.166;6.992;2023-04-24T16:26:31;12.20;99.90
19483;DHT22;9882;51.166;6.992;2023-04-24T16:28:59;12.20;99.90
19483;DHT22;9882;51.166;6.992;2023-04-24T16:31:29;12.10;99.90
19483;DHT22;9882;51.166;6.992;2023-04-24T16:33:58;12.40;99.90
19483;DHT22;9882;51.166;6.992;2023-04-24T16:36:26;12.60;99.90
19483;DHT22;9882;51.166;6.992;2023-04-24T16:38:55;12.40;99.90
19483;DHT22;9882;51.166;6.992;2023-04-24T16:41:23;12.60;99.90
19483;DHT22;9882;51.166;6.992;2023-04-24T16:43:52;12.60;99.90
19483;DHT22;9882;51.166;6.992;2023-04-24T16:46:20;12.70;99.90
19483;DHT22;9882;51.166;6.992;2023-04-24T16:48:50;12.50;99.90
19483;DHT22;9882;51.166;6.992;2023-04-24T16:51:19;12.40;99.90
19483;DHT22;9882;51.166;6.992;2023-04-24T16:53:47;12.60;99.90
19483;DHT22;9882;51.166;6.992;2023-04-24T16:56:16;12.40;99.90
19483;DHT22;9882;51.166;6.992;2023-04-24T16:58:44;12.70;99.90
19483;DHT22;9882;51.166;6.992;2023-04-24T17:01:12;13.00;99.90
19483;DHT22;9882;51.166;6.992;2023-04-24T17:03:41;13.30;99.90
19483;DHT22;9882;51.166;6.992;2023-04-24T17:06:11;12.80;99.90
19483;DHT22;9882;51.166;6.992;2023-04-24T17:08:40;13.30;99.90
19483;DHT22;9882;51.166;6.992;2023-04-24T17:11:08;13.10;99.90
19483;DHT22;9882;51.166;6.992;2023-04-24T17:13:36;13.00;99.90
19483;DHT22;9882;51.166;6.992;2023-04-24T17:16:08;13.30;99.90
19483;DHT22;9882;51.166;6.992;2023-04-24T17:18:37;13.70;99.90
19483;DHT22;9882;51.166;6.992;2023-04-24T17:21:05;13.30;99.90
19483;DHT22;9882;51.166;6.992;2023-04-24T17:23:36;12.50;99.90
19483;DHT22;9882;51.166;6.992;2023-04-24T17:26:04;11.70;99.90
19483;DHT22;9882;51.166;6.992;2023-04-24T17:28:33;12.10;99.90
19483;DHT22;9882;51.166;6.992;2023-04-24T17:31:01;12.40;99.90
19483;DHT22;9882;51.166;6.992;2023-04-24T17:33:30;12.50;99.90
19483;DHT22;9882;51.166;6.992;2023-04-24T17:35:59;12.10;99.90
19483;DHT22;9882;51.166;6.992;2023-04-24T17:38:28;11.70;99.90
19483;DHT22;9882;51.166;6.992;2023-04-24T17:40:58;12.20;99.90
19483;DHT22;9882;51.166;6.992;2023-04-24T17:43:28;11.80;99.90
19483;DHT22;9882;51.166;6.992;2023-04-24T17:45:59;11.80;99.90
19483;DHT22;9882;51.166;6.992;2023-04-24T17:48:30;11.50;99.90
19483;DHT22;9882;51.166;6.992;2023-04-24T17:51:01;11.60;99.90
19483;DHT22;9882;51.166;6.992;2023-04-24T17:53:33;11.60;99.90
19483;DHT22;9882;51.166;6.992;2023-04-24T18:03:46;11.50;99.90
19483;DHT22;9882;51.166;6.992;2023-04-24T18:10:51;11.40;99.90
19483;DHT22;9882;51.166;6.992;2023-04-24T18:25:28;10.60;99.90
19483;DHT22;9882;51.166;6.992;2023-04-24T18:27:57;10.60;99.90
19483;DHT22;9882;51.166;6.992;2023-04-24T18:30:25;10.90;99.90
19483;DHT22;9882;51.166;6.992;2023-04-24T18:32:54;10.60;99.90
19483;DHT22;9882;51.166;6.992;2023-04-24T18:35:23;10.50;99.90
19483;DHT22;9882;51.166;6.992;2023-04-24T18:37:51;10.30;99.90
19483;DHT22;9882;51.166;6.992;2023-04-24T18:40:20;10.20;99.90
19483;DHT22;9882;51.166;6.992;2023-04-24T18:42:51;10.50;99.90
19483;DHT22;9882;51.166;6.992;2023-04-24T18:45:20;10.50;99.90
19483;DHT22;9882;51.166;6.992;2023-04-24T18:47:48;10.40;99.90
19483;DHT22;9882;51.166;6.992;2023-04-24T18:50:17;10.30;99.90
19483;DHT22;9882;51.166;6.992;2023-04-24T18:52:47;10.30;99.90
19483;DHT22;9882;51.166;6.992;2023-04-24T18:55:17;10.40;99.90